Central Nebraska Regional Airport

Airport
ICAO code: 
KGRI
Summary
ICAO Region: 
NAM
Territory: 
Location: 
Grand Island, Nebraska,
Elevation: 
1847 ft
Coordinates: 
Aerial View: 
40° 58' 9.384" N, 98° 19' 7.284" W
Metar
Observation
KGRI 040653Z AUTO 01003KT 10SM CLR 01/M02 A3025 RMK AO2 SLP255 T00061022
Station
Grand Island, Central Nebraska Regional Airport
Date/Time
2021-12-04 06:53:00
Wind direction
10°
Wind speed
03 kts
Lowest cloud amount
n/a
Temperature
0.6°C
Dew point
-2.2°C
Humidity
81%
Weather condition
n/a

Description

Central Nebraska Regional Airport is a public use airport located 5 km northeast of Grand Island, in Hall County, Nebraska.

Climatology

Humid continental climate (Köppen climate classification Dfa) - characterized by four seasons: cold, windy, snowy winters, mild springs, hot, humid summers, and crisp and relatively short autumns. Precipitation reaches its lowest in January and February and peaks in summer and latter half of spring.

Runways

Designator Length Width Surface Rops
13/31 2014 30 CON Yes/Yes
17/35 2134 46 ASP Yes/Yes
Airport map: 
Aerial View: 

SKYbrary Partners:

Safety knowledge contributed by: